Time;durP1;ratioP1;P1;durP2;ratioP2;P2;SDS_P1;SDS_P2;PMS_P1;PMS_P2;Temp;Humidity;BMP_temperature;BMP_pressure;BME280_temperature;BME280_humidity;BME280_pressure;Samples;Min_cycle;Max_cycle;Signal;HPM_P1;HPM_P2
2024/03/21 00:00:21;;;;;;;3.25;1.40;;;13.30;72.00;;;;;;2312705;53;20984;-65
2024/03/21 00:02:47;;;;;;;4.00;1.85;;;13.30;72.00;;;;;;2313580;55;21040;-65
2024/03/21 00:05:14;;;;;;;3.05;1.58;;;13.30;72.10;;;;;;2313362;53;21506;-65
2024/03/21 00:07:45;;;;;;;3.00;1.45;;;13.30;72.10;;;;;;2290454;54;20945;-65
2024/03/21 00:10:19;;;;;;;3.42;1.45;;;13.20;72.00;;;;;;2313878;53;20968;-64
2024/03/21 00:12:51;;;;;;;4.20;1.83;;;13.20;71.70;;;;;;2313777;54;21053;-65
2024/03/21 00:15:18;;;;;;;;;;;13.20;71.70;;;;;;2316520;55;21068;-65
2024/03/21 00:17:47;;;;;;;3.00;1.30;;;13.20;70.60;;;;;;2314152;54;20512;-65
2024/03/21 00:20:31;;;;;;;4.75;1.60;;;13.20;72.00;;;;;;2315021;55;21013;-65
2024/03/21 00:22:57;;;;;;;4.00;1.80;;;13.20;71.40;;;;;;2311980;55;20956;-66
2024/03/21 00:25:24;;;;;;;3.83;1.90;;;13.10;72.10;;;;;;2313419;53;21756;-65
2024/03/21 00:27:51;;;;;;;4.80;2.10;;;13.10;72.20;;;;;;2313654;53;21462;-65
2024/03/21 00:30:18;;;;;;;3.72;1.98;;;13.10;72.20;;;;;;2314012;55;21201;-65
2024/03/21 00:32:46;;;;;;;3.62;1.92;;;13.00;72.10;;;;;;2314110;53;21009;-65
2024/03/21 00:35:13;;;;;;;4.32;1.60;;;13.00;72.90;;;;;;2314149;55;21418;-65
2024/03/21 00:37:39;;;;;;;3.05;1.37;;;13.00;72.30;;;;;;2313684;53;21139;-65
2024/03/21 00:40:06;;;;;;;3.17;1.67;;;13.00;72.40;;;;;;2313582;55;21024;-65
2024/03/21 00:42:33;;;;;;;3.22;1.70;;;13.00;72.40;;;;;;2313246;54;21510;-66
2024/03/21 00:44:59;;;;;;;3.25;1.52;;;13.00;72.40;;;;;;2313687;53;20957;-65
2024/03/21 00:47:25;;;;;;;4.22;1.70;;;12.90;72.60;;;;;;2313576;55;21509;-65
2024/03/21 00:49:52;;;;;;;4.43;1.87;;;12.90;72.40;;;;;;2314166;53;20981;-66
2024/03/21 00:52:18;;;;;;;3.17;1.55;;;12.90;72.50;;;;;;2314022;55;20933;-65
2024/03/21 00:54:44;;;;;;;3.35;1.55;;;12.90;72.50;;;;;;2313478;53;21398;-65
2024/03/21 00:57:12;;;;;;;2.97;1.42;;;12.90;72.50;;;;;;2313687;55;21045;-65
2024/03/21 00:59:38;;;;;;;3.50;1.50;;;12.90;72.60;;;;;;2313086;54;20960;-65
2024/03/21 01:02:07;;;;;;;5.45;2.00;;;12.90;72.70;;;;;;2313703;55;21000;-64
2024/03/21 01:04:33;;;;;;;3.50;1.77;;;12.90;72.80;;;;;;2313529;55;20953;-65
2024/03/21 01:07:00;;;;;;;3.95;1.80;;;12.90;72.80;;;;;;2313724;55;20933;-65
2024/03/21 01:09:29;;;;;;;3.50;1.60;;;12.90;72.90;;;;;;2315421;55;21702;-65
2024/03/21 01:11:59;;;;;;;2.78;1.27;;;12.90;72.90;;;;;;2308889;53;21044;-64
2024/03/21 01:14:30;;;;;;;2.85;1.35;;;12.90;72.90;;;;;;2313684;55;21445;-65
2024/03/21 01:16:57;;;;;;;4.15;1.50;;;12.90;73.00;;;;;;2313670;53;21043;-65
2024/03/21 01:19:23;;;;;;;3.45;1.50;;;12.90;73.10;;;;;;2311256;53;20997;-64
2024/03/21 01:21:51;;;;;;;3.08;1.30;;;12.90;73.20;;;;;;2312570;54;20948;-64
2024/03/21 01:24:18;;;;;;;2.75;1.30;;;13.00;73.40;;;;;;2313067;53;20945;-65
2024/03/21 01:26:44;;;;;;;4.45;1.30;;;12.90;73.40;;;;;;2312979;53;21238;-65
2024/03/21 01:29:11;;;;;;;3.20;1.60;;;12.90;73.50;;;;;;2300311;55;20956;-65
2024/03/21 01:31:38;;;;;;;3.70;1.70;;;13.00;73.70;;;;;;2307447;53;21061;-65
2024/03/21 01:34:04;;;;;;;4.68;1.80;;;13.00;73.80;;;;;;2314416;55;21043;-66
2024/03/21 01:36:34;;;;;;;3.60;1.90;;;13.10;73.90;;;;;;2314547;55;20961;-65
2024/03/21 01:39:01;;;;;;;3.20;1.50;;;13.00;73.90;;;;;;2309555;54;20937;-65
2024/03/21 01:41:28;;;;;;;2.65;1.27;;;13.10;74.10;;;;;;2313080;55;20985;-65
2024/03/21 01:43:54;;;;;;;3.42;1.65;;;13.10;74.10;;;;;;2313595;53;20936;-65
2024/03/21 01:46:20;;;;;;;2.83;1.50;;;13.10;74.20;;;;;;2314311;54;20968;-65
2024/03/21 01:48:51;;;;;;;3.62;1.55;;;13.20;74.40;;;;;;2313082;53;20953;-65
2024/03/21 01:51:26;;;;;;;2.78;1.45;;;13.20;74.40;;;;;;2317287;53;21486;-65
2024/03/21 01:53:55;;;;;;;2.72;1.33;;;13.20;74.20;;;;;;2308065;55;21281;-65
2024/03/21 01:56:22;;;;;;;5.50;1.70;;;13.20;74.50;;;;;;2313636;54;20948;-65
2024/03/21 01:58:48;;;;;;;3.05;1.40;;;13.30;74.60;;;;;;2313481;53;20965;-65
2024/03/21 02:01:38;;;;;;;4.20;1.40;;;13.30;74.60;;;;;;2313516;55;21522;-66
2024/03/21 02:04:07;;;;;;;;;;;13.30;74.00;;;;;;2316592;55;21573;-65
2024/03/21 02:06:34;;;;;;;2.75;1.25;;;13.30;74.00;;;;;;2313429;53;20376;-64
2024/03/21 02:09:02;;;;;;;2.60;1.20;;;13.40;74.60;;;;;;2312980;55;21017;-65
2024/03/21 02:11:28;;;;;;;4.30;1.48;;;13.40;74.60;;;;;;2314235;53;21289;-65
2024/03/21 02:13:55;;;;;;;3.30;1.42;;;13.50;74.70;;;;;;2314395;55;20946;-65
2024/03/21 02:16:22;;;;;;;2.62;1.27;;;13.50;74.60;;;;;;2297335;54;21474;-65
2024/03/21 02:18:48;;;;;;;3.50;1.45;;;13.50;74.70;;;;;;2313607;55;20980;-65
2024/03/21 02:23:59;;;;;;;4.07;1.40;;;13.60;74.70;;;;;;2313655;54;20957;-65
2024/03/21 02:26:26;;;;;;;2.20;0.98;;;13.60;74.70;;;;;;2313689;53;20968;-65
2024/03/21 02:28:53;;;;;;;2.90;1.33;;;13.60;74.70;;;;;;2312561;55;21333;-66
2024/03/21 02:31:20;;;;;;;3.87;1.20;;;13.70;74.80;;;;;;2289858;55;20964;-64
2024/03/21 02:33:50;;;;;;;4.10;1.52;;;13.70;74.70;;;;;;2313526;55;21016;-65
2024/03/21 02:36:16;;;;;;;2.87;1.48;;;13.70;74.70;;;;;;2313829;53;20985;-65
2024/03/21 02:38:42;;;;;;;3.22;1.60;;;13.70;74.80;;;;;;2314010;55;21013;-65
2024/03/21 02:41:12;;;;;;;2.90;1.42;;;13.80;74.80;;;;;;2314089;53;20988;-66
2024/03/21 02:43:38;;;;;;;3.10;1.33;;;13.80;74.80;;;;;;2313569;55;20969;-65
2024/03/21 02:46:05;;;;;;;3.20;1.40;;;13.80;74.70;;;;;;2313348;53;21035;-65
2024/03/21 02:48:33;;;;;;;4.65;1.60;;;13.80;74.70;;;;;;2314290;53;21004;-65
2024/03/21 02:51:00;;;;;;;3.33;1.70;;;13.80;74.70;;;;;;2314018;54;20953;-65
2024/03/21 02:53:26;;;;;;;2.85;1.62;;;13.90;74.80;;;;;;2314019;55;21056;-66
2024/03/21 02:55:54;;;;;;;3.33;1.55;;;13.90;74.80;;;;;;2313117;53;20933;-65
2024/03/21 02:58:20;;;;;;;3.17;1.40;;;13.90;74.80;;;;;;2313777;54;21028;-65
2024/03/21 03:00:46;;;;;;;4.25;1.35;;;13.90;74.80;;;;;;2313737;53;21293;-66
2024/03/21 03:03:13;;;;;;;2.90;1.42;;;13.90;74.80;;;;;;2312785;55;20964;-66
2024/03/21 03:05:44;;;;;;;3.58;1.52;;;14.00;74.90;;;;;;2312778;53;21116;-66
2024/03/21 03:08:10;;;;;;;3.20;1.67;;;14.00;74.80;;;;;;2313751;53;20968;-66
2024/03/21 03:10:37;;;;;;;3.20;1.65;;;14.00;74.80;;;;;;2313615;54;21611;-66
2024/03/21 03:13:03;;;;;;;2.95;1.42;;;14.00;74.90;;;;;;2313526;55;21197;-64
2024/03/21 03:15:32;;;;;;;3.05;1.50;;;14.10;74.90;;;;;;2314427;53;20961;-66
2024/03/21 03:17:59;;;;;;;3.28;1.67;;;14.10;75.00;;;;;;2315814;55;20952;-66
2024/03/21 03:20:25;;;;;;;2.92;1.50;;;14.10;75.00;;;;;;2313441;55;20977;-65
2024/03/21 03:22:52;;;;;;;2.85;1.50;;;14.10;75.00;;;;;;2313244;55;21723;-65
2024/03/21 03:25:19;;;;;;;3.28;1.60;;;14.20;75.00;;;;;;2313801;55;21732;-66
2024/03/21 03:27:45;;;;;;;2.80;1.40;;;14.20;75.00;;;;;;2313260;55;21474;-65
2024/03/21 03:30:13;;;;;;;2.87;1.50;;;14.20;75.00;;;;;;2313541;53;21707;-66
2024/03/21 03:32:47;;;;;;;2.65;1.30;;;14.20;75.00;;;;;;2313272;55;21044;-65
2024/03/21 03:35:34;;;;;;;3.17;1.20;;;14.20;75.00;;;;;;2290483;54;21326;-65
2024/03/21 03:38:00;;;;;;;2.72;1.40;;;14.30;75.10;;;;;;2312218;53;20949;-66
2024/03/21 03:40:27;;;;;;;3.10;1.20;;;14.30;75.10;;;;;;2313718;55;21008;-65
2024/03/21 03:42:54;;;;;;;2.97;1.40;;;14.30;75.00;;;;;;2313355;53;21024;-66
2024/03/21 03:45:22;;;;;;;3.78;1.40;;;14.30;75.00;;;;;;2313922;54;20964;-65
2024/03/21 03:47:48;;;;;;;2.67;1.33;;;14.30;74.90;;;;;;2313309;55;21213;-64
2024/03/21 03:50:19;;;;;;;2.72;1.45;;;14.40;75.10;;;;;;2314378;54;20988;-65
2024/03/21 03:52:46;;;;;;;2.72;1.30;;;14.40;75.00;;;;;;2313695;55;20937;-66
2024/03/21 03:55:13;;;;;;;2.47;1.35;;;14.40;75.10;;;;;;2313646;55;21050;-66
2024/03/21 03:57:40;;;;;;;3.72;1.60;;;14.50;75.10;;;;;;2313978;54;20993;-66
2024/03/21 04:00:10;;;;;;;2.95;1.25;;;14.50;75.00;;;;;;2316020;53;21815;-65
2024/03/21 04:02:43;;;;;;;3.17;1.40;;;14.40;75.00;;;;;;2290761;55;20987;-66
2024/03/21 04:05:10;;;;;;;3.30;1.80;;;14.50;74.90;;;;;;2313318;55;20973;-65
2024/03/21 04:07:37;;;;;;;2.58;1.17;;;14.50;75.00;;;;;;2314568;55;21186;-65
2024/03/21 04:10:05;;;;;;;2.60;1.20;;;14.50;75.00;;;;;;2314270;53;20945;-65
2024/03/21 04:12:33;;;;;;;3.47;1.60;;;14.50;75.00;;;;;;2314362;55;20965;-66
2024/03/21 04:15:00;;;;;;;3.47;1.70;;;14.60;75.10;;;;;;2313190;54;21728;-65
2024/03/21 04:17:26;;;;;;;4.55;2.08;;;14.60;75.10;;;;;;2313749;53;21631;-66
2024/03/21 04:19:52;;;;;;;4.47;2.40;;;14.60;75.10;;;;;;2312289;54;21005;-65
2024/03/21 04:22:22;;;;;;;4.43;2.12;;;14.60;75.00;;;;;;2311787;55;20957;-65
2024/03/21 04:24:49;;;;;;;4.20;2.15;;;14.70;75.00;;;;;;2308651;55;21599;-66
2024/03/21 04:27:15;;;;;;;4.45;2.42;;;14.70;75.10;;;;;;2309452;53;21744;-66
2024/03/21 04:29:43;;;;;;;4.65;1.83;;;14.70;75.10;;;;;;2314098;53;20981;-65
2024/03/21 04:32:14;;;;;;;4.30;1.87;;;14.60;74.90;;;;;;2313570;53;21546;-66
2024/03/21 04:34:41;;;;;;;3.83;1.83;;;14.70;74.80;;;;;;2315022;55;20981;-67
2024/03/21 04:37:10;;;;;;;5.40;1.65;;;14.80;75.00;;;;;;2289758;55;20931;-67
2024/03/21 04:39:36;;;;;;;5.07;1.90;;;14.70;75.00;;;;;;2314194;55;20997;-66
2024/03/21 04:42:03;;;;;;;3.83;1.33;;;14.70;75.00;;;;;;2313282;53;20988;-66
2024/03/21 04:44:29;;;;;;;2.60;1.40;;;14.70;75.00;;;;;;2313814;53;20996;-66
2024/03/21 04:46:55;;;;;;;2.50;1.20;;;14.70;74.90;;;;;;2314245;53;21028;-67
2024/03/21 04:49:22;;;;;;;3.37;1.40;;;14.70;74.80;;;;;;2311647;55;20985;-67
2024/03/21 04:51:48;;;;;;;3.60;1.73;;;14.70;74.80;;;;;;2313121;53;20997;-66
2024/03/21 04:54:15;;;;;;;3.20;1.45;;;14.70;74.80;;;;;;2314024;53;21383;-66
2024/03/21 04:56:41;;;;;;;2.50;1.30;;;14.70;74.80;;;;;;2313946;55;21419;-67
2024/03/21 04:59:08;;;;;;;3.67;1.60;;;14.70;74.90;;;;;;2312991;55;20956;-67
2024/03/21 05:01:37;;;;;;;2.62;1.30;;;14.70;74.80;;;;;;2313767;53;20965;-66
2024/03/21 05:04:05;;;;;;;4.40;1.70;;;14.70;74.80;;;;;;2313415;53;21036;-66
2024/03/21 05:06:31;;;;;;;3.45;1.50;;;14.70;74.90;;;;;;2314087;53;21466;-66
2024/03/21 05:08:59;;;;;;;3.65;1.50;;;14.80;75.00;;;;;;2312465;55;21474;-66
2024/03/21 05:11:26;;;;;;;3.25;1.67;;;14.70;75.00;;;;;;2313540;53;21001;-66
2024/03/21 05:13:53;;;;;;;3.55;1.85;;;14.70;75.00;;;;;;2312836;53;20961;-66
2024/03/21 05:16:20;;;;;;;4.57;2.15;;;14.70;75.00;;;;;;2315533;53;21029;-67
2024/03/21 05:18:51;;;;;;;4.15;2.00;;;14.80;75.20;;;;;;2315425;55;20969;-66
2024/03/21 05:21:18;;;;;;;3.53;1.98;;;14.80;75.30;;;;;;2315116;55;20953;-66
2024/03/21 05:23:46;;;;;;;3.45;1.73;;;14.80;75.40;;;;;;2313460;54;21012;-65
2024/03/21 05:26:12;;;;;;;4.47;1.98;;;14.80;75.40;;;;;;2313081;53;20964;-67
2024/03/21 05:28:38;;;;;;;2.90;1.55;;;14.80;75.60;;;;;;2313751;54;21302;-66
2024/03/21 05:31:23;;;;;;;3.83;1.70;;;14.80;75.70;;;;;;2314862;53;20957;-66
2024/03/21 05:33:50;;;;;;;4.28;1.85;;;14.90;75.50;;;;;;2312651;54;20953;-67
2024/03/21 05:36:17;;;;;;;3.40;1.90;;;14.90;76.00;;;;;;2313066;54;20945;-66
2024/03/21 05:38:47;;;;;;;4.78;1.95;;;14.90;76.20;;;;;;2312516;53;20973;-66
2024/03/21 05:41:20;;;;;;;3.62;1.75;;;14.90;76.10;;;;;;2313911;55;21076;-67
2024/03/21 05:43:47;;;;;;;3.80;2.10;;;14.90;76.30;;;;;;2313871;53;20972;-66
2024/03/21 05:46:13;;;;;;;4.07;2.15;;;15.00;76.50;;;;;;2313134;54;22757;-67
2024/03/21 05:48:41;;;;;;;3.70;1.70;;;15.00;76.50;;;;;;2313338;53;21028;-67
2024/03/21 05:51:11;;;;;;;5.45;2.08;;;15.10;76.60;;;;;;2312850;53;20945;-66
2024/03/21 05:53:38;;;;;;;4.62;2.40;;;15.10;76.60;;;;;;2314272;53;20933;-67
2024/03/21 05:56:05;;;;;;;3.58;2.10;;;15.10;76.70;;;;;;2313494;55;20984;-66
2024/03/21 05:58:33;;;;;;;3.58;2.05;;;15.20;76.80;;;;;;2313928;53;21254;-67
2024/03/21 06:01:43;;;;;;;5.87;2.40;;;15.20;76.80;;;;;;2313141;55;20933;-67
2024/03/21 06:04:09;;;;;;;8.75;3.95;;;15.30;76.90;;;;;;2312525;53;20969;-66
2024/03/21 06:06:35;;;;;;;7.72;3.95;;;15.30;76.90;;;;;;2311598;53;21198;-67
2024/03/21 06:09:05;;;;;;;6.20;3.30;;;15.40;77.00;;;;;;2313435;53;21013;-66
2024/03/21 06:11:34;;;;;;;6.05;3.80;;;15.40;77.00;;;;;;2314112;53;20993;-66
2024/03/21 06:14:04;;;;;;;5.40;3.45;;;15.40;77.00;;;;;;2313750;55;21221;-66
2024/03/21 06:16:31;;;;;;;5.32;3.10;;;15.50;77.00;;;;;;2316973;55;20942;-67
2024/03/21 06:18:58;;;;;;;4.75;2.80;;;15.50;77.10;;;;;;2308867;54;20952;-66
2024/03/21 06:21:24;;;;;;;4.07;2.40;;;15.50;77.70;;;;;;2313900;55;21659;-68
2024/03/21 06:23:51;;;;;;;4.28;2.60;;;15.60;77.00;;;;;;2314407;53;21185;-65
2024/03/21 06:26:19;;;;;;;4.00;2.50;;;15.60;77.00;;;;;;2314176;54;21032;-66
2024/03/21 06:28:45;;;;;;;10.13;2.78;;;15.60;76.90;;;;;;2313687;53;21373;-66
2024/03/21 06:31:12;;;;;;;4.30;2.53;;;15.60;76.90;;;;;;2313046;55;21060;-66
2024/03/21 06:33:38;;;;;;;7.00;2.55;;;15.70;77.00;;;;;;2315193;53;21240;-66
2024/03/21 06:36:05;;;;;;;4.10;2.55;;;15.70;77.00;;;;;;2312926;55;20969;-66
2024/03/21 06:38:33;;;;;;;3.95;2.40;;;15.70;77.00;;;;;;2314549;55;21434;-66
2024/03/21 06:40:59;;;;;;;4.37;2.10;;;15.80;77.00;;;;;;2312831;55;21397;-66
2024/03/21 06:43:25;;;;;;;3.75;2.28;;;15.80;77.10;;;;;;2310638;55;21041;-66
2024/03/21 06:45:55;;;;;;;4.32;2.35;;;15.80;77.00;;;;;;2313685;55;21334;-67
2024/03/21 06:48:22;;;;;;;6.55;2.12;;;15.90;77.00;;;;;;2314370;55;20925;-66
2024/03/21 06:50:52;;;;;;;5.87;2.33;;;15.90;77.10;;;;;;2314346;55;20961;-67
2024/03/21 06:53:18;;;;;;;3.70;2.20;;;15.90;77.10;;;;;;2308679;53;21492;-67
2024/03/21 06:55:52;;;;;;;5.00;2.00;;;16.00;77.30;;;;;;2298724;55;21053;-66
2024/03/21 06:58:19;;;;;;;4.32;2.50;;;16.00;77.00;;;;;;2313923;53;21131;-67
2024/03/21 07:00:50;;;;;;;3.72;1.95;;;16.00;77.30;;;;;;2315960;53;21669;-66
2024/03/21 07:03:19;;;;;;;5.20;2.40;;;16.10;77.30;;;;;;2313891;53;21384;-66
2024/03/21 07:06:01;;;;;;;3.75;2.20;;;16.10;77.40;;;;;;2309492;55;20953;-66
2024/03/21 07:08:27;;;;;;;4.05;2.30;;;16.20;77.50;;;;;;2310178;55;20938;-66
2024/03/21 07:10:55;;;;;;;4.60;2.00;;;16.20;77.50;;;;;;2312818;55;20924;-66
2024/03/21 07:13:21;;;;;;;4.30;2.35;;;16.20;77.50;;;;;;2314402;54;21477;-66
2024/03/21 07:15:47;;;;;;;4.12;2.40;;;16.30;77.50;;;;;;2314621;54;20941;-66
2024/03/21 07:18:14;;;;;;;3.92;2.20;;;16.30;77.50;;;;;;2313089;55;21427;-67
2024/03/21 07:20:40;;;;;;;4.05;1.98;;;16.40;77.70;;;;;;2313673;53;21037;-66
2024/03/21 07:23:07;;;;;;;5.40;2.20;;;16.40;77.70;;;;;;2312605;53;20961;-66
2024/03/21 07:25:35;;;;;;;3.85;2.20;;;16.40;77.70;;;;;;2314363;55;20945;-66
2024/03/21 07:28:05;;;;;;;5.62;2.50;;;16.50;77.70;;;;;;2312892;53;20945;-66
2024/03/21 07:30:31;;;;;;;4.72;2.45;;;16.60;77.60;;;;;;2313842;53;21815;-66
2024/03/21 07:33:01;;;;;;;6.95;2.62;;;16.60;77.80;;;;;;2312256;54;21425;-65
2024/03/21 07:35:28;;;;;;;5.18;2.22;;;16.70;77.80;;;;;;2314086;54;21480;-66
2024/03/21 07:37:54;;;;;;;3.97;2.53;;;16.70;77.80;;;;;;2313686;55;21120;-66
2024/03/21 07:40:21;;;;;;;4.37;2.20;;;16.80;77.80;;;;;;2313455;53;20944;-66
2024/03/21 07:42:47;;;;;;;3.55;2.10;;;16.80;77.80;;;;;;2313653;53;21471;-66
2024/03/21 07:45:15;;;;;;;3.40;2.12;;;16.90;77.90;;;;;;2312584;55;20973;-66
2024/03/21 07:47:41;;;;;;;4.03;2.25;;;16.90;77.80;;;;;;2313944;55;21036;-66
2024/03/21 07:50:08;;;;;;;4.35;2.47;;;16.90;77.80;;;;;;2312637;55;21004;-66
2024/03/21 07:52:34;;;;;;;4.07;2.35;;;17.00;77.80;;;;;;2313987;55;20996;-66
2024/03/21 07:55:01;;;;;;;6.53;2.65;;;17.00;77.70;;;;;;2312850;55;20941;-66
2024/03/21 07:57:27;;;;;;;4.37;2.30;;;17.10;77.80;;;;;;2314284;53;21704;-66
2024/03/21 07:59:55;;;;;;;3.72;1.98;;;17.20;77.80;;;;;;2313872;54;20981;-66
2024/03/21 08:02:21;;;;;;;5.12;2.33;;;17.20;77.80;;;;;;2313384;53;21008;-66
2024/03/21 08:04:48;;;;;;;4.55;2.37;;;17.30;77.90;;;;;;2312801;53;20965;-67
2024/03/21 08:07:14;;;;;;;4.03;2.10;;;17.30;77.70;;;;;;2312319;53;20957;-66
2024/03/21 08:09:41;;;;;;;4.35;2.40;;;17.30;77.70;;;;;;2313400;55;21032;-66
2024/03/21 08:12:07;;;;;;;4.85;2.30;;;17.40;77.70;;;;;;2314666;53;20981;-67
2024/03/21 08:14:33;;;;;;;4.62;2.70;;;17.40;77.70;;;;;;2310651;53;20941;-66
2024/03/21 08:17:01;;;;;;;4.45;2.08;;;17.50;77.60;;;;;;2312393;54;20993;-66
2024/03/21 08:19:32;;;;;;;3.85;2.40;;;17.50;77.60;;;;;;2312114;53;21257;-66
2024/03/21 08:22:00;;;;;;;5.20;2.58;;;17.60;77.70;;;;;;2312295;55;21044;-66
2024/03/21 08:24:28;;;;;;;5.78;2.47;;;17.60;77.80;;;;;;2312364;55;21864;-66
2024/03/21 08:26:55;;;;;;;3.92;1.95;;;17.70;77.90;;;;;;2313039;55;21016;-66
2024/03/21 08:29:21;;;;;;;6.43;2.70;;;17.70;77.90;;;;;;2313490;55;22334;-66
2024/03/21 08:31:48;;;;;;;4.40;2.45;;;17.80;77.80;;;;;;2313900;55;21355;-66
2024/03/21 08:34:14;;;;;;;5.53;2.30;;;17.90;77.80;;;;;;2312794;55;21827;-66
2024/03/21 08:36:41;;;;;;;5.53;2.12;;;17.90;77.70;;;;;;2313538;53;20945;-66
2024/03/21 08:39:07;;;;;;;4.85;2.05;;;17.90;77.60;;;;;;2312719;54;20949;-65
2024/03/21 08:41:34;;;;;;;4.10;2.50;;;18.00;77.80;;;;;;2313472;53;21012;-68
2024/03/21 08:44:00;;;;;;;4.68;2.60;;;18.00;77.90;;;;;;2313342;53;20913;-67
2024/03/21 08:46:27;;;;;;;5.72;2.55;;;18.10;78.30;;;;;;2313655;55;21846;-66
2024/03/21 08:48:53;;;;;;;6.15;2.12;;;18.10;78.50;;;;;;2313406;55;20984;-66
2024/03/21 08:51:21;;;;;;;3.80;2.00;;;18.20;78.70;;;;;;2313204;54;20961;-67
2024/03/21 08:53:48;;;;;;;7.22;2.65;;;18.30;78.90;;;;;;2419329;54;1778008;-67
2024/03/21 08:56:14;;;;;;;4.00;2.50;;;18.30;79.00;;;;;;2312869;53;21032;-66
2024/03/21 08:58:41;;;;;;;4.68;2.35;;;18.40;78.90;;;;;;2313712;55;21020;-67
2024/03/21 09:01:07;;;;;;;4.47;2.12;;;18.40;78.70;;;;;;2312658;55;20956;-68
2024/03/21 09:03:34;;;;;;;4.32;2.20;;;18.50;78.80;;;;;;2314675;55;21462;-66
2024/03/21 09:06:00;;;;;;;4.70;2.35;;;18.60;78.80;;;;;;2308504;53;20945;-66
2024/03/21 09:08:26;;;;;;;4.60;2.62;;;18.60;78.90;;;;;;2314075;55;21001;-67
2024/03/21 09:11:00;;;;;;;4.57;2.92;;;18.70;79.00;;;;;;2313508;55;21419;-67
2024/03/21 09:13:26;;;;;;;5.37;2.50;;;18.80;78.80;;;;;;2313516;55;20937;-67
2024/03/21 09:15:52;;;;;;;5.05;2.78;;;18.90;79.50;;;;;;2313363;53;20961;-67
2024/03/21 09:18:19;;;;;;;4.85;2.80;;;19.00;79.60;;;;;;2313724;53;20945;-67
2024/03/21 09:20:50;;;;;;;5.05;3.40;;;19.00;79.60;;;;;;2314085;53;21775;-66
2024/03/21 09:23:19;;;;;;;4.55;2.85;;;19.10;79.40;;;;;;2315218;55;21125;-67
2024/03/21 09:25:45;;;;;;;4.87;2.80;;;19.20;79.40;;;;;;2310379;53;20997;-66
2024/03/21 09:28:14;;;;;;;5.60;2.37;;;19.30;79.40;;;;;;2312230;55;20989;-69
2024/03/21 09:30:44;;;;;;;4.53;2.20;;;19.30;79.20;;;;;;2313469;54;21288;-66
2024/03/21 09:33:12;;;;;;;3.60;2.15;;;19.40;79.30;;;;;;2312903;55;21123;-68
2024/03/21 09:35:39;;;;;;;3.78;2.33;;;19.30;79.10;;;;;;2313650;55;21466;-66
2024/03/21 09:38:06;;;;;;;5.87;2.75;;;19.60;79.30;;;;;;2312709;54;21265;-67
2024/03/21 09:40:32;;;;;;;4.87;2.35;;;19.60;79.00;;;;;;2313370;55;21034;-65
2024/03/21 09:42:59;;;;;;;4.15;2.05;;;19.70;79.00;;;;;;2313202;53;20937;-66
2024/03/21 09:45:25;;;;;;;5.80;2.17;;;19.80;79.00;;;;;;2312982;55;21068;-66
2024/03/21 09:47:54;;;;;;;3.55;2.05;;;19.80;78.90;;;;;;2313642;55;21288;-66
2024/03/21 09:50:23;;;;;;;3.85;2.22;;;19.90;79.10;;;;;;2312947;55;21925;-67
2024/03/21 09:52:50;;;;;;;4.03;2.15;;;20.00;79.30;;;;;;2313467;55;21510;-66
2024/03/21 09:55:17;;;;;;;3.35;1.92;;;20.10;79.30;;;;;;2312318;53;21020;-67
2024/03/21 09:57:44;;;;;;;4.22;2.60;;;20.10;79.10;;;;;;2313618;55;20957;-66
2024/03/21 10:00:12;;;;;;;3.70;2.03;;;20.20;78.80;;;;;;2311699;54;21021;-67
2024/03/21 10:02:39;;;;;;;3.05;2.05;;;20.30;78.50;;;;;;2293800;55;20976;-66
2024/03/21 10:05:08;;;;;;;4.47;2.50;;;20.40;78.30;;;;;;2311415;53;20981;-67
2024/03/21 10:07:36;;;;;;;4.53;2.70;;;20.40;77.80;;;;;;2313474;53;20981;-66
2024/03/21 10:10:05;;;;;;;4.12;2.78;;;20.50;77.60;;;;;;2313408;53;20964;-66
2024/03/21 10:12:31;;;;;;;5.70;3.28;;;20.50;77.10;;;;;;2313269;55;21065;-68
2024/03/21 10:14:57;;;;;;;6.57;3.85;;;20.50;77.40;;;;;;2314976;54;21501;-67
2024/03/21 10:17:24;;;;;;;5.68;3.62;;;20.60;77.40;;;;;;2306836;53;20977;-67
2024/03/21 10:19:55;;;;;;;6.50;3.67;;;20.60;77.20;;;;;;2313669;55;21525;-66
2024/03/21 10:22:23;;;;;;;7.00;3.62;;;20.60;77.00;;;;;;2314036;55;21740;-66
2024/03/21 10:24:54;;;;;;;6.75;4.40;;;20.70;77.30;;;;;;2312254;55;20977;-68
2024/03/21 10:27:21;;;;;;;6.72;3.80;;;20.70;76.60;;;;;;2312964;53;21016;-68
2024/03/21 10:29:47;;;;;;;5.75;3.45;;;20.70;77.00;;;;;;2313672;53;21049;-67
2024/03/21 10:32:19;;;;;;;5.47;2.87;;;20.70;76.90;;;;;;2313455;55;20941;-67
2024/03/21 10:34:48;;;;;;;4.45;2.70;;;20.80;76.60;;;;;;2314730;55;20952;-67
2024/03/21 10:37:18;;;;;;;4.78;2.67;;;20.80;77.00;;;;;;2313244;55;20969;-68
2024/03/21 10:39:45;;;;;;;4.40;2.42;;;20.80;76.60;;;;;;2314143;53;21032;-68
2024/03/21 10:42:30;;;;;;;5.90;2.60;;;20.90;77.00;;;;;;2312251;55;21625;-67
2024/03/21 10:45:01;;;;;;;4.80;2.50;;;20.90;75.10;;;;;;2301827;55;21091;-66
2024/03/21 10:47:27;;;;;;;5.68;2.40;;;21.00;76.60;;;;;;2305700;55;21629;-67
2024/03/21 10:50:00;;;;;;;4.68;2.50;;;21.00;77.00;;;;;;2313141;53;20996;-66
2024/03/21 10:52:27;;;;;;;4.82;2.62;;;21.00;76.80;;;;;;2314426;55;21356;-67
2024/03/21 10:54:53;;;;;;;7.07;3.20;;;21.00;76.70;;;;;;2311872;53;21011;-67
2024/03/21 10:57:27;;;;;;;3.95;2.20;;;21.10;76.80;;;;;;2312509;55;20953;-68
2024/03/21 11:00:10;;;;;;;3.85;2.28;;;21.10;76.00;;;;;;2313120;53;20965;-69
2024/03/21 11:02:38;;;;;;;4.68;1.80;;;21.10;74.70;;;;;;2315013;54;20953;-67
2024/03/21 11:05:15;;;;;;;4.62;2.20;;;21.20;76.60;;;;;;2313947;55;21333;-67
2024/03/21 11:07:44;;;;;;;4.07;2.30;;;21.20;75.70;;;;;;2311789;55;21521;-68
2024/03/21 11:10:22;;;;;;;4.60;1.83;;;21.20;76.70;;;;;;2313523;54;21020;-67
2024/03/21 11:12:49;;;;;;;3.83;2.10;;;21.30;75.00;;;;;;2313833;53;21867;-66
2024/03/21 11:15:16;;;;;;;4.00;1.80;;;21.30;76.60;;;;;;2313507;54;20956;-66
2024/03/21 11:17:43;;;;;;;3.03;1.55;;;21.30;76.40;;;;;;2313875;55;21068;-67
2024/03/21 11:20:12;;;;;;;4.28;1.90;;;21.30;76.50;;;;;;2312717;53;20977;-67
2024/03/21 11:22:46;;;;;;;4.05;1.87;;;21.40;76.80;;;;;;2313599;53;20937;-69
2024/03/21 11:25:12;;;;;;;5.37;1.60;;;21.40;76.30;;;;;;2312518;53;20965;-67
2024/03/21 11:27:39;;;;;;;5.32;1.52;;;21.50;77.00;;;;;;2313460;53;20953;-67
2024/03/21 11:30:07;;;;;;;3.12;1.67;;;21.60;77.20;;;;;;2313112;55;21533;-68
2024/03/21 11:32:33;;;;;;;2.58;1.40;;;21.60;77.20;;;;;;2314918;55;20998;-67
2024/03/21 11:35:00;;;;;;;3.35;1.42;;;21.70;77.20;;;;;;2310102;55;21387;-67
2024/03/21 11:37:27;;;;;;;3.72;1.40;;;21.80;77.60;;;;;;2312239;53;21406;-67
2024/03/21 11:39:54;;;;;;;3.67;1.23;;;21.80;77.30;;;;;;2315568;55;21156;-67
2024/03/21 11:42:20;;;;;;;2.92;1.30;;;21.90;76.90;;;;;;2310136;55;20961;-68
2024/03/21 11:44:48;;;;;;;2.15;1.12;;;22.00;76.60;;;;;;2314214;54;21828;-68
2024/03/21 11:47:22;;;;;;;2.83;1.17;;;22.10;76.20;;;;;;2313155;53;21033;-70
2024/03/21 11:49:50;;;;;;;2.47;1.17;;;22.10;75.40;;;;;;2313980;53;21354;-67
2024/03/21 11:52:17;;;;;;;3.05;1.40;;;22.10;75.50;;;;;;2313161;53;20957;-67
2024/03/21 11:54:43;;;;;;;1.95;1.00;;;22.20;75.50;;;;;;2313301;53;20953;-67
2024/03/21 11:57:14;;;;;;;2.22;0.90;;;22.20;75.50;;;;;;2312622;55;21020;-68
2024/03/21 11:59:41;;;;;;;2.00;0.93;;;22.20;74.30;;;;;;2313832;53;21089;-67
2024/03/21 12:02:13;;;;;;;2.50;1.10;;;22.20;74.90;;;;;;2312838;53;21045;-68
2024/03/21 12:04:40;;;;;;;2.75;1.17;;;22.30;74.70;;;;;;2313579;55;21473;-67
2024/03/21 12:07:12;;;;;;;3.17;0.95;;;22.30;75.10;;;;;;2313715;53;21465;-68
2024/03/21 12:09:38;;;;;;;2.97;1.10;;;22.40;75.10;;;;;;2313563;55;21084;-68
2024/03/21 12:12:05;;;;;;;3.87;1.20;;;22.30;74.90;;;;;;2313259;53;21025;-68
2024/03/21 12:14:34;;;;;;;1.98;1.00;;;22.30;74.90;;;;;;2313875;53;20981;-67
2024/03/21 12:17:01;;;;;;;2.72;1.15;;;22.40;75.10;;;;;;2313720;54;20992;-71
2024/03/21 12:19:28;;;;;;;3.03;1.05;;;22.50;75.70;;;;;;2312923;55;20977;-70
2024/03/21 12:21:54;;;;;;;1.90;0.80;;;22.50;75.10;;;;;;2313447;54;21056;-69
2024/03/21 12:24:20;;;;;;;1.95;0.77;;;22.50;74.90;;;;;;2313667;55;21600;-69
2024/03/21 12:26:46;;;;;;;2.42;0.98;;;22.60;74.90;;;;;;2313702;55;21498;-67
2024/03/21 12:29:13;;;;;;;3.42;0.90;;;22.60;74.90;;;;;;2313401;55;20961;-69
2024/03/21 12:31:39;;;;;;;1.58;0.75;;;22.60;74.80;;;;;;2314023;53;21177;-69
2024/03/21 12:34:05;;;;;;;2.30;1.02;;;22.70;74.70;;;;;;2313988;55;20961;-67
2024/03/21 12:36:34;;;;;;;1.90;0.90;;;22.70;74.40;;;;;;2311094;53;20996;-69
2024/03/21 12:39:00;;;;;;;2.65;1.00;;;22.70;74.20;;;;;;2313580;53;21850;-69
2024/03/21 12:41:27;;;;;;;1.77;0.90;;;22.70;74.00;;;;;;2316779;55;21084;-69
2024/03/21 12:43:56;;;;;;;3.80;1.05;;;22.70;73.90;;;;;;2289830;55;20996;-70
2024/03/21 12:46:22;;;;;;;2.28;1.08;;;22.80;73.90;;;;;;2313165;55;21049;-68
2024/03/21 12:48:48;;;;;;;2.22;0.88;;;22.80;73.70;;;;;;2313592;53;21498;-68
2024/03/21 12:51:18;;;;;;;3.85;1.08;;;22.80;73.50;;;;;;2313078;55;21905;-69
2024/03/21 12:53:48;;;;;;;2.33;1.00;;;22.80;73.50;;;;;;2313944;55;20941;-68